Time;durP1;ratioP1;P1;durP2;ratioP2;P2;SDS_P1;SDS_P2;PMS_P1;PMS_P2;Temp;Humidity;BMP_temperature;BMP_pressure;BME280_temperature;BME280_humidity;BME280_pressure;Samples;Min_cycle;Max_cycle;Signal;HPM_P1;HPM_P2
2023/06/05 00:00:22;;;;;;;6.77;1.80;;;12.70;99.90;;;;;;2622034;46;20023;31
2023/06/05 00:03:01;;;;;;;4.07;1.70;;;12.80;99.90;;;;;;2603638;54;20031;31
2023/06/05 00:05:36;;;;;;;3.97;1.77;;;12.80;99.90;;;;;;2603603;54;20011;31
2023/06/05 00:08:11;;;;;;;6.80;1.90;;;12.80;99.90;;;;;;2603578;54;20033;31
2023/06/05 00:10:47;;;;;;;3.42;1.52;;;12.80;99.90;;;;;;2603580;54;20037;31
2023/06/05 00:13:24;;;;;;;4.38;1.35;;;12.90;99.90;;;;;;2603702;54;20901;31
2023/06/05 00:16:02;;;;;;;4.30;1.85;;;12.80;99.90;;;;;;2603853;54;20584;31
2023/06/05 00:18:40;;;;;;;3.05;1.50;;;12.90;99.90;;;;;;2607833;46;20856;31
2023/06/05 00:21:15;;;;;;;4.80;1.90;;;12.80;99.90;;;;;;2603627;54;20885;31
2023/06/05 00:23:50;;;;;;;3.17;1.40;;;12.80;99.90;;;;;;2622259;46;20030;31
2023/06/05 00:26:26;;;;;;;3.28;1.33;;;12.70;99.90;;;;;;2603716;54;20851;31
2023/06/05 00:29:02;;;;;;;4.33;1.60;;;12.70;99.90;;;;;;2603297;54;20032;31
2023/06/05 00:31:36;;;;;;;4.23;1.90;;;12.70;99.90;;;;;;2701814;39;20474;31
2023/06/05 00:34:15;;;;;;;5.78;1.25;;;12.70;99.90;;;;;;2603735;54;20052;31
2023/06/05 00:36:50;;;;;;;2.30;1.40;;;12.60;99.90;;;;;;2701976;39;21467;31
2023/06/05 00:39:24;;;;;;;3.35;1.20;;;12.60;99.90;;;;;;2603318;54;20040;31
2023/06/05 00:42:00;;;;;;;3.90;1.50;;;12.60;99.90;;;;;;2603572;54;20854;31
2023/06/05 00:44:35;;;;;;;3.27;1.63;;;12.60;99.90;;;;;;2621678;46;20049;31
2023/06/05 00:47:10;;;;;;;3.60;1.50;;;12.60;99.90;;;;;;2603479;54;20888;31
2023/06/05 00:49:48;;;;;;;6.77;1.57;;;12.50;99.90;;;;;;2603454;54;19986;31
2023/06/05 00:52:22;;;;;;;3.33;1.50;;;12.50;99.90;;;;;;2603534;54;20921;31
2023/06/05 00:54:58;;;;;;;4.85;1.40;;;12.50;99.90;;;;;;2603650;54;20842;31
2023/06/05 00:57:34;;;;;;;4.30;1.20;;;12.40;99.90;;;;;;2603518;54;20761;31
2023/06/05 01:00:12;;;;;;;2.30;1.10;;;12.50;99.90;;;;;;2621072;46;20256;31
2023/06/05 01:02:47;;;;;;;3.65;1.75;;;12.40;99.90;;;;;;2603593;54;20058;31
2023/06/05 01:05:22;;;;;;;3.35;2.00;;;12.40;99.90;;;;;;2603549;54;20050;31
2023/06/05 01:08:02;;;;;;;3.92;1.50;;;12.40;99.90;;;;;;2603547;54;20046;31
2023/06/05 01:10:37;;;;;;;4.88;1.77;;;12.40;99.90;;;;;;2603614;54;20038;31
2023/06/05 01:13:16;;;;;;;4.55;1.40;;;12.40;99.90;;;;;;2603614;54;20033;31
2023/06/05 01:15:52;;;;;;;4.35;2.13;;;12.30;99.90;;;;;;2603346;54;20026;31
2023/06/05 01:18:28;;;;;;;2.17;1.10;;;12.40;99.90;;;;;;2603501;54;20033;31
2023/06/05 01:21:03;;;;;;;6.40;1.55;;;12.40;99.90;;;;;;2720283;39;21428;31
2023/06/05 01:23:44;;;;;;;2.50;1.30;;;12.40;99.90;;;;;;2603711;54;20022;31
2023/06/05 01:26:21;;;;;;;2.75;1.50;;;12.30;99.90;;;;;;2603609;54;20052;31
2023/06/05 01:28:55;;;;;;;2.17;1.40;;;12.30;99.90;;;;;;2603406;54;20022;31
2023/06/05 01:31:36;;;;;;;3.38;1.48;;;12.30;99.90;;;;;;2621943;46;20899;31
2023/06/05 01:34:13;;;;;;;4.25;1.55;;;12.30;99.90;;;;;;2603225;54;20056;31
2023/06/05 01:36:47;;;;;;;4.30;1.80;;;12.20;99.90;;;;;;2621610;46;20048;31
2023/06/05 01:39:24;;;;;;;3.40;1.40;;;12.20;99.90;;;;;;2603131;54;20871;31
2023/06/05 01:42:00;;;;;;;2.90;1.35;;;12.20;99.90;;;;;;2621550;46;20269;31
2023/06/05 01:44:34;;;;;;;5.10;1.80;;;12.20;99.90;;;;;;2621796;46;20023;31
2023/06/05 01:47:10;;;;;;;4.82;1.55;;;12.20;99.90;;;;;;2603455;54;21081;31
2023/06/05 01:49:46;;;;;;;3.03;1.70;;;12.10;99.90;;;;;;2603457;54;20052;31
2023/06/05 01:52:23;;;;;;;3.60;1.58;;;12.10;99.90;;;;;;2602877;54;20125;31
2023/06/05 01:54:59;;;;;;;3.33;1.55;;;12.10;99.90;;;;;;2603227;54;20759;31
2023/06/05 01:57:36;;;;;;;3.70;1.63;;;12.00;99.90;;;;;;2621868;46;20796;31
2023/06/05 02:00:13;;;;;;;4.70;1.70;;;12.00;99.90;;;;;;2603327;54;20037;31
2023/06/05 02:02:48;;;;;;;3.95;1.63;;;12.00;99.90;;;;;;2614368;46;20875;31
2023/06/05 02:05:24;;;;;;;4.20;1.65;;;12.00;99.90;;;;;;2701873;39;20416;31
2023/06/05 02:08:04;;;;;;;3.25;1.40;;;12.00;99.90;;;;;;2603246;54;19938;31
2023/06/05 02:10:42;;;;;;;3.22;1.50;;;11.90;99.90;;;;;;2621821;46;20820;31
2023/06/05 02:13:22;;;;;;;5.00;1.90;;;11.90;99.90;;;;;;2603380;54;20030;31
2023/06/05 02:16:00;;;;;;;4.65;1.95;;;11.90;99.90;;;;;;2603206;54;20034;31
2023/06/05 02:18:36;;;;;;;3.60;1.67;;;11.80;99.90;;;;;;2603193;54;20820;31
2023/06/05 02:21:14;;;;;;;2.87;1.50;;;11.80;99.90;;;;;;2603597;54;20056;31
2023/06/05 02:23:49;;;;;;;2.67;1.63;;;11.80;99.90;;;;;;2603123;54;20031;31
2023/06/05 02:26:25;;;;;;;3.63;1.93;;;11.80;99.90;;;;;;2603110;54;20144;31
2023/06/05 02:29:06;;;;;;;3.63;1.48;;;11.70;99.90;;;;;;2621999;46;20909;31
2023/06/05 02:31:41;;;;;;;3.80;1.88;;;11.70;99.90;;;;;;2621914;46;20832;31
2023/06/05 02:34:16;;;;;;;3.70;1.60;;;11.60;99.90;;;;;;2603086;54;20026;31
2023/06/05 02:36:51;;;;;;;2.97;1.60;;;11.60;99.90;;;;;;2603314;54;20239;31
2023/06/05 02:39:27;;;;;;;10.30;2.10;;;11.60;99.90;;;;;;2791264;31;20716;31
2023/06/05 02:42:02;;;;;;;6.25;2.05;;;11.50;99.90;;;;;;2602973;54;20044;31
2023/06/05 02:44:39;;;;;;;5.43;1.80;;;11.50;99.90;;;;;;2603013;54;20293;31
2023/06/05 02:47:15;;;;;;;3.13;1.50;;;11.40;99.90;;;;;;2603089;54;20471;31
2023/06/05 02:49:50;;;;;;;3.33;1.52;;;11.40;99.90;;;;;;2602902;54;20026;31
2023/06/05 02:52:27;;;;;;;3.40;1.58;;;11.40;99.90;;;;;;2603118;54;20053;31
2023/06/05 02:55:02;;;;;;;1.70;1.37;;;11.30;99.90;;;;;;2603126;54;20013;31
2023/06/05 02:57:41;;;;;;;2.75;2.00;;;11.30;99.90;;;;;;2621406;47;20022;31
2023/06/05 03:00:26;;;;;;;4.53;1.95;;;11.20;99.90;;;;;;2603181;54;20034;31
2023/06/05 03:03:03;;;;;;;2.35;1.80;;;11.10;99.90;;;;;;2602868;54;20031;31
2023/06/05 03:05:40;;;;;;;3.28;1.30;;;11.10;99.90;;;;;;2603880;54;20838;31
2023/06/05 03:08:20;;;;;;;4.25;1.67;;;11.10;99.90;;;;;;2604057;54;20023;31
2023/06/05 03:10:56;;;;;;;3.20;1.80;;;11.10;99.90;;;;;;2603951;54;20022;31
2023/06/05 03:13:32;;;;;;;4.03;1.53;;;11.00;99.90;;;;;;2603692;54;20964;31
2023/06/05 03:16:12;;;;;;;4.35;1.60;;;11.00;99.90;;;;;;2603789;54;20315;31
2023/06/05 03:18:55;;;;;;;4.35;1.80;;;11.00;99.90;;;;;;2622144;46;20032;31
2023/06/05 03:21:30;;;;;;;5.88;2.33;;;11.00;99.90;;;;;;2621868;46;20885;31
2023/06/05 03:24:06;;;;;;;5.03;2.20;;;11.00;99.90;;;;;;2603805;54;19961;31
2023/06/05 03:26:43;;;;;;;3.45;1.95;;;11.10;99.90;;;;;;2604018;54;20136;31
2023/06/05 03:29:20;;;;;;;7.45;1.80;;;11.10;99.90;;;;;;2603864;54;20030;31
2023/06/05 03:31:58;;;;;;;3.30;1.90;;;11.20;99.90;;;;;;2603573;54;20023;31
2023/06/05 03:34:37;;;;;;;3.10;2.10;;;11.30;99.90;;;;;;2622156;46;20029;31
2023/06/05 03:37:14;;;;;;;7.38;2.15;;;11.40;99.90;;;;;;2622299;46;20037;31
2023/06/05 03:42:26;;;;;;;5.30;2.00;;;11.60;99.90;;;;;;2603879;54;20072;31
2023/06/05 03:45:01;;;;;;;4.45;2.05;;;11.80;99.90;;;;;;2603763;54;20027;31
2023/06/05 03:47:40;;;;;;;5.10;1.90;;;11.90;99.90;;;;;;2621379;46;20027;31
2023/06/05 03:50:20;;;;;;;6.00;2.15;;;12.10;99.90;;;;;;2622050;46;20928;31
2023/06/05 03:53:02;;;;;;;2.97;1.63;;;12.30;99.90;;;;;;2603910;54;20889;31
2023/06/05 03:55:45;;;;;;;7.25;2.42;;;12.50;99.90;;;;;;2622472;46;20847;31
2023/06/05 03:58:26;;;;;;;4.85;2.60;;;12.70;99.90;;;;;;2622422;46;20048;31
2023/06/05 04:01:04;;;;;;;4.60;2.20;;;12.90;99.90;;;;;;2603632;54;20033;31
2023/06/05 04:03:41;;;;;;;;;;;13.00;99.90;;;;;;2603833;54;20918;31
2023/06/05 04:06:20;;;;;;;6.57;2.70;;;13.20;99.90;;;;;;2603514;54;19942;31
2023/06/05 04:08:56;;;;;;;7.75;2.45;;;13.40;99.90;;;;;;2603877;54;20034;31
2023/06/05 04:11:33;;;;;;;5.35;2.47;;;13.60;99.90;;;;;;2603626;54;20573;31
2023/06/05 04:17:05;;;;;;;4.75;1.92;;;13.90;99.90;;;;;;2603415;54;20612;31
2023/06/05 04:22:23;;;;;;;5.85;2.30;;;14.20;99.90;;;;;;2603765;54;20917;31
2023/06/05 04:24:58;;;;;;;3.95;2.30;;;14.40;99.90;;;;;;2603670;54;20033;31
2023/06/05 04:27:33;;;;;;;6.55;2.15;;;14.60;99.90;;;;;;2603622;54;20910;31
2023/06/05 04:30:11;;;;;;;3.63;2.10;;;14.70;99.90;;;;;;2603762;54;20026;31
2023/06/05 04:32:52;;;;;;;6.88;2.22;;;14.90;99.90;;;;;;2603591;54;20034;31
2023/06/05 04:35:31;;;;;;;3.50;2.00;;;15.00;99.90;;;;;;2603728;54;20910;31
2023/06/05 04:38:12;;;;;;;7.10;2.30;;;15.20;99.90;;;;;;2603388;54;20845;31
2023/06/05 04:40:51;;;;;;;6.32;2.50;;;15.30;99.90;;;;;;2603549;54;20034;31
2023/06/05 04:43:29;;;;;;;4.75;2.10;;;15.60;99.90;;;;;;2603361;54;20033;31
2023/06/05 04:46:05;;;;;;;6.78;2.85;;;15.70;99.90;;;;;;2603403;54;20038;31
2023/06/05 04:48:45;;;;;;;5.07;2.50;;;15.90;99.90;;;;;;2603406;54;20030;31
2023/06/05 04:51:22;;;;;;;6.15;2.65;;;16.10;99.90;;;;;;2603560;54;20085;31
2023/06/05 04:54:01;;;;;;;6.68;2.75;;;16.30;99.90;;;;;;2621911;46;20581;31
2023/06/05 04:56:40;;;;;;;6.00;2.53;;;16.50;99.90;;;;;;2603344;54;20558;31
2023/06/05 04:59:17;;;;;;;6.55;2.90;;;16.70;99.90;;;;;;2621735;46;20085;31
2023/06/05 05:01:54;;;;;;;4.88;2.53;;;16.90;99.90;;;;;;2603558;54;20877;31
2023/06/05 05:04:31;;;;;;;5.30;2.80;;;17.10;99.90;;;;;;2602702;54;20828;31
2023/06/05 05:07:06;;;;;;;8.18;3.25;;;17.20;99.90;;;;;;2603269;54;20899;31
2023/06/05 05:09:45;;;;;;;9.00;2.30;;;17.30;99.90;;;;;;2603530;54;20036;31
2023/06/05 05:12:21;;;;;;;6.60;2.50;;;17.50;99.90;;;;;;2603546;54;21071;31
2023/06/05 05:14:56;;;;;;;8.45;2.65;;;17.70;99.90;;;;;;2603598;54;20974;31
2023/06/05 05:17:32;;;;;;;6.30;2.20;;;17.90;99.90;;;;;;2603257;54;20085;31
2023/06/05 05:20:10;;;;;;;5.10;1.98;;;18.00;99.90;;;;;;2764892;31;20311;31
2023/06/05 05:22:46;;;;;;;6.13;2.00;;;18.10;99.90;;;;;;2603327;54;20026;31
2023/06/05 05:25:25;;;;;;;5.85;2.50;;;18.30;99.90;;;;;;2603494;54;20821;31
2023/06/05 05:28:00;;;;;;;9.93;2.60;;;18.60;99.90;;;;;;2603117;54;20846;31
2023/06/05 05:30:36;;;;;;;6.97;2.65;;;18.80;99.90;;;;;;2603481;54;20956;31
2023/06/05 05:33:12;;;;;;;6.90;2.38;;;18.90;99.90;;;;;;2603212;54;20868;31
2023/06/05 05:35:47;;;;;;;5.57;2.20;;;19.10;99.90;;;;;;2603118;54;20081;31
2023/06/05 05:38:25;;;;;;;7.97;3.45;;;19.20;99.90;;;;;;2701682;39;20598;31
2023/06/05 05:41:03;;;;;;;3.67;2.00;;;19.40;99.90;;;;;;2621741;46;20755;31
2023/06/05 05:43:38;;;;;;;5.40;2.22;;;19.60;99.90;;;;;;2621453;46;20945;31
2023/06/05 05:46:13;;;;;;;8.18;2.58;;;19.70;99.90;;;;;;2603432;54;20486;31
2023/06/05 05:48:48;;;;;;;5.13;1.92;;;19.90;99.90;;;;;;2621742;46;20030;31
2023/06/05 05:51:23;;;;;;;9.95;2.10;;;20.00;99.90;;;;;;2603342;54;20030;31
2023/06/05 05:53:58;;;;;;;7.75;2.15;;;20.20;99.90;;;;;;2603327;54;20053;31
2023/06/05 05:56:36;;;;;;;3.75;2.17;;;20.30;99.90;;;;;;2603345;54;20791;31
2023/06/05 05:59:11;;;;;;;6.68;2.25;;;20.50;99.90;;;;;;2603391;54;20097;31
2023/06/05 06:01:46;;;;;;;7.72;2.05;;;20.60;99.90;;;;;;2603266;54;20817;31
2023/06/05 06:04:21;;;;;;;5.50;2.45;;;20.80;99.90;;;;;;2720429;39;20551;31
2023/06/05 06:06:56;;;;;;;6.55;2.30;;;21.00;99.90;;;;;;2603353;54;20045;31
2023/06/05 06:09:31;;;;;;;8.30;2.40;;;21.20;99.10;;;;;;2603387;54;20878;31
2023/06/05 06:12:10;;;;;;;4.60;2.65;;;21.30;98.90;;;;;;2621051;46;20022;31
2023/06/05 06:14:45;;;;;;;7.63;2.25;;;21.50;98.20;;;;;;2621881;46;20031;31
2023/06/05 06:17:20;;;;;;;;;;;21.60;98.20;;;;;;2621927;46;20030;31
2023/06/05 06:19:55;;;;;;;5.20;2.00;;;21.80;97.30;;;;;;2603058;54;19989;31
2023/06/05 06:22:30;;;;;;;4.55;2.50;;;22.00;97.20;;;;;;2621352;46;20928;31
2023/06/05 06:25:06;;;;;;;6.93;2.17;;;22.10;96.40;;;;;;2621602;46;20027;31
2023/06/05 06:27:45;;;;;;;7.13;2.20;;;22.30;96.60;;;;;;2603237;54;20027;31
2023/06/05 06:30:21;;;;;;;5.27;2.30;;;22.30;96.00;;;;;;2603261;54;20477;31
2023/06/05 06:32:58;;;;;;;7.83;2.17;;;22.50;95.80;;;;;;2603226;54;20890;31
2023/06/05 06:35:34;;;;;;;5.38;1.98;;;22.70;94.90;;;;;;2603202;54;20979;31
2023/06/05 06:38:10;;;;;;;6.25;2.10;;;22.80;95.40;;;;;;2621485;46;20030;31
2023/06/05 06:40:47;;;;;;;8.02;2.67;;;23.10;94.90;;;;;;2604848;54;20752;31
2023/06/05 06:43:26;;;;;;;4.72;2.22;;;23.30;94.30;;;;;;2623285;46;20056;31
2023/06/05 06:46:09;;;;;;;7.75;2.05;;;23.40;94.50;;;;;;2604881;54;20589;31
2023/06/05 06:48:44;;;;;;;5.63;2.30;;;23.60;93.70;;;;;;2703640;38;20378;31
2023/06/05 06:51:21;;;;;;;9.18;2.60;;;23.80;92.80;;;;;;2623259;46;20026;31
2023/06/05 06:53:57;;;;;;;7.97;2.63;;;23.80;92.40;;;;;;2623438;46;20760;31
2023/06/05 06:56:31;;;;;;;7.20;2.90;;;23.90;91.90;;;;;;2604754;54;20042;31
2023/06/05 06:59:16;;;;;;;13.88;3.20;;;23.80;91.70;;;;;;2604639;54;20136;31
2023/06/05 07:02:11;;;;;;;8.30;3.25;;;23.80;92.00;;;;;;2604846;54;20864;31
2023/06/05 07:04:46;;;;;;;6.13;2.83;;;23.90;91.80;;;;;;2604967;54;20033;31
2023/06/05 07:07:22;;;;;;;;;;;24.10;91.50;;;;;;2605301;54;20037;31
2023/06/05 07:09:57;;;;;;;6.95;2.10;;;24.30;91.10;;;;;;2604813;54;20855;31
2023/06/05 07:12:32;;;;;;;6.38;2.85;;;24.60;90.80;;;;;;2702974;38;20392;31
2023/06/05 07:15:12;;;;;;;6.50;2.75;;;24.70;90.40;;;;;;2604656;54;20595;31
2023/06/05 07:17:47;;;;;;;6.00;2.47;;;24.90;89.70;;;;;;2610409;46;20569;31
2023/06/05 07:20:22;;;;;;;8.45;2.65;;;25.10;89.00;;;;;;2604871;54;20116;31
2023/06/05 07:22:57;;;;;;;6.20;2.17;;;25.40;89.40;;;;;;2604668;54;20022;31
2023/06/05 07:25:32;;;;;;;5.70;2.63;;;25.70;88.10;;;;;;2622879;46;20852;31
2023/06/05 07:28:11;;;;;;;5.87;2.47;;;25.80;86.70;;;;;;2604690;54;20030;31
2023/06/05 07:30:50;;;;;;;5.75;2.13;;;26.00;87.60;;;;;;2604814;54;21122;31
2023/06/05 07:33:25;;;;;;;6.47;2.22;;;26.00;82.10;;;;;;2604825;54;20030;31
2023/06/05 07:36:04;;;;;;;9.98;2.42;;;25.90;81.00;;;;;;2604565;54;20920;31
2023/06/05 07:38:42;;;;;;;3.72;1.63;;;25.70;79.30;;;;;;2604638;54;20031;31
2023/06/05 07:41:17;;;;;;;4.30;1.70;;;25.80;79.50;;;;;;2622937;46;20049;31
2023/06/05 07:43:52;;;;;;;4.90;2.00;;;25.90;80.50;;;;;;2603901;54;20501;31
2023/06/05 07:46:30;;;;;;;5.05;1.65;;;25.90;80.00;;;;;;2604680;54;20808;31
2023/06/05 07:49:05;;;;;;;4.75;1.90;;;26.20;80.30;;;;;;2623172;46;20854;31
2023/06/05 07:51:41;;;;;;;3.00;1.70;;;26.20;77.30;;;;;;2603995;54;20887;31
2023/06/05 07:54:16;;;;;;;8.02;1.80;;;26.20;77.00;;;;;;2603616;54;20026;31
2023/06/05 07:56:51;;;;;;;3.87;1.77;;;26.30;77.60;;;;;;2603752;54;20891;31
2023/06/05 07:59:27;;;;;;;4.13;1.83;;;26.20;76.40;;;;;;2603848;54;20281;31
2023/06/05 08:02:06;;;;;;;7.10;2.00;;;26.10;76.30;;;;;;2621979;46;20851;31
2023/06/05 08:04:42;;;;;;;8.60;2.00;;;26.10;76.30;;;;;;2603787;54;20940;31
2023/06/05 08:07:16;;;;;;;;;;;26.30;77.00;;;;;;2603737;54;20026;31
2023/06/05 08:09:51;;;;;;;4.18;1.63;;;26.50;75.40;;;;;;2603831;54;19942;31
2023/06/05 08:12:26;;;;;;;5.30;1.50;;;26.70;75.70;;;;;;2622019;46;20037;31
2023/06/05 08:15:01;;;;;;;5.70;1.45;;;26.90;75.40;;;;;;2603672;54;20915;31
2023/06/05 08:17:39;;;;;;;5.75;2.08;;;27.10;75.60;;;;;;2603653;54;20030;31
2023/06/05 08:20:17;;;;;;;5.50;1.90;;;27.40;74.90;;;;;;2603528;54;20030;31
2023/06/05 08:22:52;;;;;;;8.32;1.33;;;27.40;72.80;;;;;;2603485;54;20891;31
2023/06/05 08:25:27;;;;;;;4.05;1.60;;;27.50;73.20;;;;;;2603644;54;20065;31
2023/06/05 08:28:02;;;;;;;4.85;1.50;;;27.60;73.30;;;;;;2603574;54;20035;31
2023/06/05 08:30:37;;;;;;;8.20;1.63;;;27.60;71.40;;;;;;2621578;46;20881;31
2023/06/05 08:33:15;;;;;;;4.13;1.65;;;27.60;69.60;;;;;;2603859;54;20872;31
2023/06/05 08:35:53;;;;;;;3.38;1.58;;;27.70;70.30;;;;;;2603681;54;20026;31
2023/06/05 08:38:28;;;;;;;4.20;1.38;;;27.60;69.60;;;;;;2603624;54;20906;31
2023/06/05 08:41:05;;;;;;;4.82;1.88;;;27.70;69.10;;;;;;2603585;54;20030;31
2023/06/05 08:43:41;;;;;;;3.70;1.23;;;27.80;69.60;;;;;;2603588;54;20508;31
2023/06/05 08:46:17;;;;;;;4.55;1.67;;;27.90;70.10;;;;;;2603635;54;20022;31
2023/06/05 08:48:55;;;;;;;5.03;1.45;;;28.10;68.00;;;;;;2603407;54;20775;31
2023/06/05 08:51:30;;;;;;;4.60;1.40;;;28.00;67.80;;;;;;2603508;54;20941;31
2023/06/05 08:54:09;;;;;;;4.07;1.42;;;28.00;67.80;;;;;;2603413;54;20915;31
2023/06/05 08:56:42;;;;;;;6.40;1.60;;;28.00;66.50;;;;;;2621754;46;20872;31
2023/06/05 08:59:18;;;;;;;4.07;1.30;;;28.10;66.00;;;;;;2773422;31;21399;31
2023/06/05 09:01:53;;;;;;;6.70;1.17;;;28.10;66.20;;;;;;2603379;54;20069;31
2023/06/05 09:04:29;;;;;;;;;;;28.20;65.10;;;;;;2603584;54;20032;31
2023/06/05 09:07:07;;;;;;;3.33;1.10;;;28.40;65.30;;;;;;2622407;46;19934;31
2023/06/05 09:09:43;;;;;;;2.60;1.27;;;28.40;65.30;;;;;;2603521;54;20026;31
2023/06/05 09:12:18;;;;;;;5.90;1.38;;;28.50;64.00;;;;;;2603669;54;20235;31
2023/06/05 09:14:53;;;;;;;6.18;1.33;;;28.50;62.60;;;;;;2603636;54;20034;31
2023/06/05 09:17:31;;;;;;;4.13;1.25;;;28.50;63.30;;;;;;2621814;46;20894;31
2023/06/05 09:20:09;;;;;;;5.27;1.20;;;28.60;63.80;;;;;;2603736;54;20031;31
2023/06/05 09:22:48;;;;;;;2.63;1.08;;;28.80;63.30;;;;;;2603336;54;20026;31
2023/06/05 09:25:29;;;;;;;2.75;1.10;;;28.70;60.30;;;;;;2602878;54;20828;31
2023/06/05 09:28:11;;;;;;;5.72;1.35;;;28.70;60.10;;;;;;2603707;54;20027;31
2023/06/05 09:30:59;;;;;;;1.90;1.20;;;28.70;60.40;;;;;;2603258;54;20831;31
2023/06/05 09:33:35;;;;;;;5.32;1.70;;;28.60;60.40;;;;;;2621860;46;20766;31
2023/06/05 09:36:11;;;;;;;3.17;1.13;;;28.50;61.10;;;;;;2603430;54;20862;31
2023/06/05 09:38:50;;;;;;;2.40;1.30;;;28.70;61.30;;;;;;2621918;46;20085;31
2023/06/05 09:41:25;;;;;;;4.20;1.30;;;28.80;60.70;;;;;;2603697;54;20242;31
2023/06/05 09:44:00;;;;;;;5.80;1.50;;;28.80;61.70;;;;;;2602704;54;20076;31
2023/06/05 09:46:35;;;;;;;6.90;1.33;;;28.90;60.60;;;;;;2603396;54;20033;31
2023/06/05 09:49:10;;;;;;;3.03;1.33;;;29.00;60.20;;;;;;2603527;54;20026;31
2023/06/05 09:51:46;;;;;;;4.82;1.33;;;29.00;60.10;;;;;;2603450;54;20791;31
2023/06/05 09:54:24;;;;;;;3.65;1.08;;;28.90;59.20;;;;;;2603276;54;20113;31
2023/06/05 09:57:02;;;;;;;2.87;1.03;;;29.00;60.00;;;;;;2603417;54;20922;31
2023/06/05 09:59:39;;;;;;;6.82;1.25;;;29.00;58.60;;;;;;2603485;54;20066;31
2023/06/05 10:02:16;;;;;;;3.25;1.25;;;29.00;58.10;;;;;;2603250;54;20042;31
2023/06/05 10:04:52;;;;;;;1.70;0.93;;;29.10;59.20;;;;;;2701935;39;20500;31
2023/06/05 10:07:27;;;;;;;2.58;1.63;;;29.00;58.30;;;;;;2603455;54;20616;31
2023/06/05 10:10:05;;;;;;;4.97;1.27;;;29.20;58.00;;;;;;2701963;39;20484;31
2023/06/05 10:12:42;;;;;;;2.45;1.05;;;29.20;57.80;;;;;;2603071;54;20862;31
2023/06/05 10:15:17;;;;;;;1.63;0.93;;;29.30;57.80;;;;;;2701386;39;20415;31
2023/06/05 10:17:52;;;;;;;3.95;1.55;;;29.00;59.10;;;;;;2603274;54;20030;31
2023/06/05 10:20:27;;;;;;;2.10;1.17;;;28.90;59.00;;;;;;2720520;39;20388;31
2023/06/05 10:23:02;;;;;;;2.95;1.40;;;28.80;58.50;;;;;;2603476;54;20026;31
2023/06/05 10:25:41;;;;;;;3.97;1.23;;;28.60;59.20;;;;;;2603413;54;20030;31
2023/06/05 10:28:37;;;;;;;3.30;1.23;;;28.50;58.90;;;;;;2603262;54;20600;31
2023/06/05 10:31:33;;;;;;;2.60;1.20;;;28.60;60.20;;;;;;2603142;54;20266;31
2023/06/05 10:34:16;;;;;;;2.88;1.23;;;28.80;59.00;;;;;;2603465;54;20072;31
2023/06/05 10:37:41;;;;;;;2.53;1.10;;;28.90;59.00;;;;;;2603416;54;20026;31
2023/06/05 10:40:18;;;;;;;2.10;1.10;;;28.90;58.10;;;;;;2603292;54;20042;31
2023/06/05 10:42:59;;;;;;;3.20;1.17;;;28.70;58.10;;;;;;2603287;54;20028;31
2023/06/05 10:45:34;;;;;;;2.67;0.95;;;28.50;57.50;;;;;;2621390;47;20518;31
2023/06/05 10:48:10;;;;;;;5.68;1.17;;;28.40;58.00;;;;;;2603291;54;20049;31
2023/06/05 10:50:47;;;;;;;6.35;1.60;;;28.40;57.70;;;;;;2603208;54;20912;31
2023/06/05 10:53:44;;;;;;;4.32;1.20;;;28.30;57.00;;;;;;2603129;54;20518;31
2023/06/05 10:56:50;;;;;;;2.22;1.23;;;28.40;58.70;;;;;;2621945;47;20026;31
2023/06/05 10:59:29;;;;;;;3.15;1.15;;;28.30;58.90;;;;;;2602967;54;20842;31
2023/06/05 11:02:26;;;;;;;2.33;1.25;;;28.30;58.50;;;;;;2603131;54;20049;31
2023/06/05 11:05:21;;;;;;;;;;;28.30;58.50;;;;;;2621714;47;20662;31
2023/06/05 11:08:16;;;;;;;2.13;0.93;;;28.20;57.40;;;;;;2602968;54;20521;31
2023/06/05 11:11:09;;;;;;;9.20;1.30;;;28.10;57.50;;;;;;2602968;54;20749;31
2023/06/05 11:13:58;;;;;;;3.72;1.20;;;28.10;57.30;;;;;;2621511;47;20030;31
2023/06/05 11:16:38;;;;;;;2.45;1.10;;;28.10;59.50;;;;;;2603276;54;20023;31
2023/06/05 11:19:38;;;;;;;4.22;1.40;;;28.00;58.00;;;;;;2602986;54;20577;31
2023/06/05 11:22:13;;;;;;;7.00;1.20;;;27.90;58.90;;;;;;2719814;39;20481;31
2023/06/05 11:24:49;;;;;;;3.95;1.50;;;27.90;58.30;;;;;;2602995;54;20760;31
2023/06/05 11:27:43;;;;;;;2.60;1.35;;;27.80;58.60;;;;;;2604016;54;20026;31
2023/06/05 11:30:20;;;;;;;2.83;1.20;;;27.80;58.50;;;;;;2603940;54;20031;31
2023/06/05 11:33:20;;;;;;;2.87;1.10;;;27.70;60.90;;;;;;2603679;54;20027;31
2023/06/05 11:35:56;;;;;;;2.33;1.13;;;27.70;59.00;;;;;;2604002;54;20336;31
2023/06/05 11:38:32;;;;;;;;;;;27.60;59.10;;;;;;2604038;54;20755;31
2023/06/05 11:41:11;;;;;;;3.30;2.10;;;27.60;59.30;;;;;;2603501;54;19943;31
2023/06/05 11:43:45;;;;;;;3.15;1.38;;;27.60;59.00;;;;;;2603668;54;20038;31
2023/06/05 11:46:20;;;;;;;3.33;1.45;;;27.50;58.20;;;;;;2603670;54;20865;31
2023/06/05 11:48:58;;;;;;;;;;;27.50;56.90;;;;;;2603964;54;20032;31
2023/06/05 11:51:36;;;;;;;1.85;1.23;;;27.50;57.80;;;;;;2602995;54;19942;31
2023/06/05 11:54:14;;;;;;;3.10;1.40;;;27.50;58.00;;;;;;2602957;54;20921;31
2023/06/05 11:56:52;;;;;;;2.28;1.25;;;27.50;57.90;;;;;;2603615;54;20576;31
2023/06/05 11:59:28;;;;;;;3.25;1.20;;;27.60;56.50;;;;;;2603632;54;20030;31
2023/06/05 12:02:03;;;;;;;4.32;1.27;;;27.50;57.10;;;;;;2622358;46;20782;31
2023/06/05 12:04:39;;;;;;;;;;;27.50;57.20;;;;;;2622206;46;20829;31
2023/06/05 12:07:16;;;;;;;2.63;1.20;;;27.50;57.70;;;;;;2622233;46;19935;31
2023/06/05 12:09:55;;;;;;;5.97;1.50;;;27.40;57.50;;;;;;2603825;54;20148;31
2023/06/05 12:12:31;;;;;;;5.32;1.55;;;27.50;59.40;;;;;;2603531;54;20030;31
2023/06/05 12:15:27;;;;;;;15.55;1.90;;;27.40;57.60;;;;;;2603534;54;20813;31
2023/06/05 12:20:41;;;;;;;11.02;1.60;;;27.30;57.00;;;;;;2603555;54;20033;31
2023/06/05 12:23:15;;;;;;;5.17;1.47;;;27.20;56.90;;;;;;2603381;54;20744;31
2023/06/05 12:26:01;;;;;;;2.55;1.33;;;27.30;57.70;;;;;;2603661;54;20031;31
2023/06/05 12:28:36;;;;;;;20.90;2.50;;;27.40;56.50;;;;;;2603622;54;20045;31
2023/06/05 12:31:30;;;;;;;5.60;1.88;;;27.30;56.60;;;;;;2603746;54;20239;31
2023/06/05 12:34:05;;;;;;;2.78;1.20;;;27.30;57.30;;;;;;2603441;54;20031;31
2023/06/05 12:36:47;;;;;;;4.15;1.60;;;27.20;57.00;;;;;;2603536;54;20842;31
2023/06/05 12:39:22;;;;;;;2.85;1.63;;;27.10;58.00;;;;;;2621778;46;19942;31
2023/06/05 12:41:57;;;;;;;3.30;1.15;;;27.10;56.70;;;;;;2603478;54;20042;31
2023/06/05 12:44:32;;;;;;;2.75;1.20;;;27.10;56.80;;;;;;2702198;39;20567;31
2023/06/05 12:47:08;;;;;;;2.00;1.10;;;27.10;55.70;;;;;;2603420;54;20835;31
2023/06/05 12:49:43;;;;;;;2.75;1.35;;;27.10;56.40;;;;;;2701806;39;21495;31
2023/06/05 12:52:25;;;;;;;5.22;1.42;;;27.00;56.20;;;;;;2603599;54;20577;31
2023/06/05 12:55:00;;;;;;;8.43;2.42;;;26.90;56.60;;;;;;2603518;54;20031;31
2023/06/05 12:57:36;;;;;;;5.77;2.07;;;27.00;57.70;;;;;;2603625;54;20030;31
2023/06/05 13:00:16;;;;;;;5.20;2.00;;;27.00;57.80;;;;;;2603384;54;20140;31
2023/06/05 13:02:51;;;;;;;4.70;1.20;;;27.00;56.90;;;;;;2603463;54;20048;31
2023/06/05 13:05:26;;;;;;;5.38;1.38;;;26.90;56.90;;;;;;2603595;54;20880;31
2023/06/05 13:08:04;;;;;;;2.88;1.20;;;27.00;57.50;;;;;;2603270;54;20073;31
2023/06/05 13:10:40;;;;;;;2.30;1.20;;;27.00;57.30;;;;;;2603624;54;20643;31
2023/06/05 13:13:16;;;;;;;3.70;1.45;;;27.00;57.40;;;;;;2603527;54;20854;31
2023/06/05 13:15:51;;;;;;;2.55;1.30;;;26.90;58.00;;;;;;2621926;46;20022;31
2023/06/05 13:18:26;;;;;;;2.95;1.30;;;26.90;56.90;;;;;;2603509;54;20065;31
2023/06/05 13:21:00;;;;;;;4.45;1.30;;;26.90;57.70;;;;;;2603588;54;20031;31
2023/06/05 13:23:38;;;;;;;6.40;1.70;;;26.90;56.90;;;;;;2621792;46;20027;31
2023/06/05 13:26:13;;;;;;;3.80;1.33;;;26.90;57.10;;;;;;2603260;54;20595;31
2023/06/05 13:28:48;;;;;;;2.95;1.58;;;26.90;57.10;;;;;;2603309;54;20026;31
2023/06/05 13:31:24;;;;;;;4.10;1.80;;;26.90;57.00;;;;;;2603417;54;20032;31
2023/06/05 13:34:02;;;;;;;2.65;1.13;;;26.90;57.50;;;;;;2603534;54;20885;31
2023/06/05 13:36:36;;;;;;;5.40;1.50;;;26.80;57.20;;;;;;2603432;54;20834;31
2023/06/05 13:39:14;;;;;;;6.60;1.40;;;26.90;57.50;;;;;;2603465;54;20571;31
2023/06/05 13:41:49;;;;;;;2.65;1.30;;;26.90;57.50;;;;;;2603337;54;21397;31
2023/06/05 13:44:23;;;;;;;4.88;1.17;;;26.90;58.10;;;;;;2603426;54;20774;31
2023/06/05 13:46:58;;;;;;;5.00;1.77;;;26.90;57.80;;;;;;2603630;54;19935;31
2023/06/05 13:49:35;;;;;;;2.65;1.40;;;26.90;58.00;;;;;;2621267;46;20893;31
2023/06/05 13:52:10;;;;;;;2.00;1.33;;;26.90;58.40;;;;;;2701505;39;21605;31
2023/06/05 13:54:48;;;;;;;3.10;1.45;;;27.00;58.70;;;;;;2603337;54;20030;31
2023/06/05 13:57:24;;;;;;;5.77;1.17;;;26.90;58.00;;;;;;2783016;31;20034;31
2023/06/05 13:59:58;;;;;;;3.03;1.60;;;26.90;57.50;;;;;;2621916;46;20026;31
2023/06/05 14:02:33;;;;;;;3.90;1.50;;;26.90;58.60;;;;;;2603073;54;20152;31
2023/06/05 14:05:10;;;;;;;4.40;1.45;;;26.90;58.00;;;;;;2621702;46;20104;31